Time;durP1;ratioP1;P1;durP2;ratioP2;P2;SDS_P1;SDS_P2;PMS_P1;PMS_P2;Temp;Humidity;BMP_temperature;BMP_pressure;BME280_temperature;BME280_humidity;BME280_pressure;Samples;Min_cycle;Max_cycle;Signal;HPM_P1;HPM_P2
2024/03/29 00:02:08;;;;;;;0.20;0.10;;;;;;;;;;4984446;28;20521;-79
2024/03/29 00:04:34;;;;;;;0.20;0.10;;;;;;;;;;4999726;28;20118;-76
2024/03/29 00:07:00;;;;;;;0.20;0.00;;;;;;;;;;5005726;28;20284;-80
2024/03/29 00:09:26;;;;;;;0.20;0.10;;;;;;;;;;4999666;28;20038;-77
2024/03/29 00:11:52;;;;;;;0.20;0.10;;;;;;;;;;4988297;28;20037;-79
2024/03/29 00:14:18;;;;;;;0.20;0.10;;;;;;;;;;4985550;28;20053;-78
2024/03/29 00:16:44;;;;;;;0.20;0.10;;;;;;;;;;5000018;28;20100;-79
2024/03/29 00:19:10;;;;;;;0.20;0.10;;;;;;;;;;4987631;28;20037;-77
2024/03/29 00:21:36;;;;;;;0.20;0.10;;;;;;;;;;4986964;28;20083;-78
2024/03/29 00:24:02;;;;;;;0.20;0.10;;;;;;;;;;5010317;23;20501;-77
2024/03/29 00:26:28;;;;;;;0.20;0.10;;;;;;;;;;4986538;28;20045;-77
2024/03/29 00:28:55;;;;;;;0.20;0.03;;;;;;;;;;5002200;28;20045;-79
2024/03/29 00:31:21;;;;;;;0.20;0.10;;;;;;;;;;5005646;28;20037;-78
2024/03/29 00:33:47;;;;;;;0.20;0.10;;;;;;;;;;4986331;28;20045;-79
2024/03/29 00:36:13;;;;;;;0.20;0.10;;;;;;;;;;4978728;28;20045;-79
2024/03/29 00:38:39;;;;;;;0.20;0.10;;;;;;;;;;4980024;28;20045;-78
2024/03/29 00:41:05;;;;;;;0.20;0.10;;;;;;;;;;4981892;28;20039;-77
2024/03/29 00:43:31;;;;;;;0.20;0.10;;;;;;;;;;4969383;28;20121;-76
2024/03/29 00:45:57;;;;;;;0.20;0.10;;;;;;;;;;4974012;28;20073;-78
2024/03/29 00:48:23;;;;;;;0.20;0.10;;;;;;;;;;4979441;28;20041;-75
2024/03/29 00:50:50;;;;;;;0.20;0.10;;;;;;;;;;4980472;28;20041;-79
2024/03/29 00:53:16;;;;;;;0.20;0.20;;;;;;;;;;4976811;28;20053;-78
2024/03/29 00:55:42;;;;;;;0.20;0.10;;;;;;;;;;4980926;28;20701;-77
2024/03/29 00:58:08;;;;;;;0.20;0.10;;;;;;;;;;4982251;28;20038;-79
2024/03/29 01:00:34;;;;;;;0.20;0.00;;;;;;;;;;4977883;28;20440;-77
2024/03/29 01:03:00;;;;;;;0.20;0.10;;;;;;;;;;4985055;28;20034;-77
2024/03/29 01:05:26;;;;;;;0.20;0.10;;;;;;;;;;4978677;28;20044;-75
2024/03/29 01:07:52;;;;;;;0.20;0.10;;;;;;;;;;4978672;28;20049;-77
2024/03/29 01:10:18;;;;;;;0.20;0.10;;;;;;;;;;4979088;28;20379;-77
2024/03/29 01:12:46;;;;;;;0.20;0.10;;;;;;;;;;4978572;28;20037;-78
2024/03/29 01:15:12;;;;;;;0.20;0.10;;;;;;;;;;4982345;28;20041;-78
2024/03/29 01:17:38;;;;;;;0.20;0.10;;;;;;;;;;4993055;28;20466;-78
2024/03/29 01:20:04;;;;;;;0.20;0.10;;;;;;;;;;4997082;28;21674;-78
2024/03/29 01:22:30;;;;;;;0.20;0.10;;;;;;;;;;4979351;28;20446;-77
2024/03/29 01:24:57;;;;;;;0.55;0.55;;;;;;;;;;4983879;28;20039;-78
2024/03/29 01:27:24;;;;;;;0.20;0.10;;;;;;;;;;4972450;28;20091;-75
2024/03/29 01:29:50;;;;;;;0.20;0.10;;;;;;;;;;4977130;28;20140;-76
2024/03/29 01:32:16;;;;;;;0.20;0.10;;;;;;;;;;4968129;28;20825;-78
2024/03/29 01:34:42;;;;;;;0.20;0.10;;;;;;;;;;4997022;28;20121;-77
2024/03/29 01:37:08;;;;;;;0.20;0.10;;;;;;;;;;4993237;28;20044;-79
2024/03/29 01:39:34;;;;;;;0.20;0.10;;;;;;;;;;4981008;28;20408;-81
2024/03/29 01:42:00;;;;;;;0.20;0.10;;;;;;;;;;4977358;28;20064;-78
2024/03/29 01:44:26;;;;;;;0.20;0.10;;;;;;;;;;4979397;28;20116;-77
2024/03/29 01:46:52;;;;;;;0.20;0.10;;;;;;;;;;4995970;28;20049;-78
2024/03/29 01:49:19;;;;;;;0.20;0.20;;;;;;;;;;4967399;28;20046;-79
2024/03/29 01:51:45;;;;;;;0.20;0.10;;;;;;;;;;4963341;28;20034;-76
2024/03/29 01:54:12;;;;;;;0.20;0.10;;;;;;;;;;4989823;28;20576;-76
2024/03/29 01:56:39;;;;;;;0.20;0.10;;;;;;;;;;4976386;28;20065;-78
2024/03/29 01:59:05;;;;;;;0.20;0.10;;;;;;;;;;4979840;28;20038;-78
2024/03/29 02:01:31;;;;;;;0.20;0.10;;;;;;;;;;4979204;28;20125;-78
2024/03/29 02:03:57;;;;;;;0.20;0.10;;;;;;;;;;4978563;28;20065;-78
2024/03/29 02:06:24;;;;;;;0.20;0.10;;;;;;;;;;4979266;28;20123;-76
2024/03/29 02:08:53;;;;;;;0.20;0.10;;;;;;;;;;4981372;28;20136;-77
2024/03/29 02:11:19;;;;;;;0.20;0.10;;;;;;;;;;4979726;28;20060;-79
2024/03/29 02:13:45;;;;;;;0.20;0.10;;;;;;;;;;4994345;28;20042;-78
2024/03/29 02:16:11;;;;;;;0.20;0.10;;;;;;;;;;4967312;28;20045;-77
2024/03/29 02:18:37;;;;;;;0.20;0.10;;;;;;;;;;4975157;28;20493;-77
2024/03/29 02:21:03;;;;;;;0.20;0.10;;;;;;;;;;4991074;28;20042;-76
2024/03/29 02:23:30;;;;;;;0.43;0.43;;;;;;;;;;4976680;28;20056;-77
2024/03/29 02:25:56;;;;;;;0.20;0.10;;;;;;;;;;4965421;28;20128;-75
2024/03/29 02:28:23;;;;;;;0.20;0.00;;;;;;;;;;4976922;28;20038;-77
2024/03/29 02:30:50;;;;;;;0.20;0.10;;;;;;;;;;4978269;28;20041;-78
2024/03/29 02:33:16;;;;;;;0.20;0.10;;;;;;;;;;4979016;28;20072;-76
2024/03/29 02:35:42;;;;;;;0.20;0.10;;;;;;;;;;4977988;28;20045;-76
2024/03/29 02:38:08;;;;;;;0.20;0.00;;;;;;;;;;4995271;28;20041;-75
2024/03/29 02:40:34;;;;;;;0.20;0.10;;;;;;;;;;4977943;28;20144;-76
2024/03/29 02:43:00;;;;;;;0.20;0.10;;;;;;;;;;4995435;28;20049;-76
2024/03/29 02:45:26;;;;;;;0.20;0.10;;;;;;;;;;4976625;28;20034;-77
2024/03/29 02:47:52;;;;;;;0.20;0.10;;;;;;;;;;4975833;28;20045;-77
2024/03/29 02:50:18;;;;;;;0.20;0.10;;;;;;;;;;4967704;28;20062;-78
2024/03/29 02:52:44;;;;;;;0.20;0.10;;;;;;;;;;4982275;28;20042;-76
2024/03/29 02:55:13;;;;;;;0.20;0.10;;;;;;;;;;4980233;28;20409;-76
2024/03/29 02:57:39;;;;;;;0.20;0.10;;;;;;;;;;4972296;28;20053;-79
2024/03/29 03:00:06;;;;;;;0.20;0.10;;;;;;;;;;4992073;28;20053;-76
2024/03/29 03:02:32;;;;;;;0.40;0.40;;;;;;;;;;4973808;28;20132;-77
2024/03/29 03:05:00;;;;;;;0.20;0.10;;;;;;;;;;4979837;28;20542;-77
2024/03/29 03:12:55;;;;;;;0.20;0.00;;;;;;;;;;4978833;28;20045;-77
2024/03/29 03:15:21;;;;;;;0.20;0.00;;;;;;;;;;4995494;28;20713;-77
2024/03/29 03:17:47;;;;;;;0.20;0.10;;;;;;;;;;4983064;28;20045;-77
2024/03/29 03:20:15;;;;;;;0.20;0.10;;;;;;;;;;4974122;28;20045;-78
2024/03/29 03:22:41;;;;;;;0.20;0.10;;;;;;;;;;4976777;28;21422;-76
2024/03/29 03:25:08;;;;;;;0.20;0.20;;;;;;;;;;4973678;28;20048;-75
2024/03/29 03:27:33;;;;;;;0.20;0.17;;;;;;;;;;4977206;28;20053;-76
2024/03/29 03:30:00;;;;;;;0.20;0.10;;;;;;;;;;4964433;28;20037;-76
2024/03/29 03:32:32;;;;;;;0.85;0.85;;;;;;;;;;5107427;27;20914;-79
2024/03/29 03:34:58;;;;;;;0.20;0.10;;;;;;;;;;5097501;27;21212;-78
2024/03/29 03:37:24;;;;;;;0.20;0.10;;;;;;;;;;5105152;27;20035;-78
2024/03/29 03:39:50;;;;;;;0.20;0.10;;;;;;;;;;5095410;28;20051;-78
2024/03/29 03:42:16;;;;;;;0.20;0.10;;;;;;;;;;5085902;28;20036;-79
2024/03/29 03:44:42;;;;;;;0.20;0.10;;;;;;;;;;5103118;27;20066;-77
2024/03/29 03:47:08;;;;;;;0.20;0.10;;;;;;;;;;5104162;28;20037;-78
2024/03/29 03:49:34;;;;;;;0.20;0.10;;;;;;;;;;5100103;28;20043;-77
2024/03/29 03:52:00;;;;;;;0.20;0.10;;;;;;;;;;5107169;27;20039;-78
2024/03/29 03:54:26;;;;;;;0.20;0.00;;;;;;;;;;5090460;28;20047;-78
2024/03/29 03:56:52;;;;;;;0.20;0.10;;;;;;;;;;5085705;27;20097;-78
2024/03/29 03:59:18;;;;;;;0.20;0.10;;;;;;;;;;5105275;27;20035;-78
2024/03/29 04:01:44;;;;;;;0.20;0.10;;;;;;;;;;5106527;27;20074;-77
2024/03/29 04:04:10;;;;;;;0.20;0.10;;;;;;;;;;5087731;27;20035;-77
2024/03/29 04:06:36;;;;;;;0.20;0.10;;;;;;;;;;5101387;27;20556;-79
2024/03/29 04:09:02;;;;;;;0.20;0.10;;;;;;;;;;5086245;27;20040;-77
2024/03/29 04:11:29;;;;;;;0.20;0.05;;;;;;;;;;5089215;28;20044;-79
2024/03/29 04:13:55;;;;;;;0.20;0.10;;;;;;;;;;5103834;27;20645;-77
2024/03/29 04:16:21;;;;;;;0.20;0.10;;;;;;;;;;5084735;28;20046;-78
2024/03/29 04:18:47;;;;;;;0.20;0.00;;;;;;;;;;5089124;28;20031;-78
2024/03/29 04:21:13;;;;;;;0.20;0.10;;;;;;;;;;5086731;28;20040;-78
2024/03/29 04:23:39;;;;;;;0.20;0.10;;;;;;;;;;5108206;27;20092;-78
2024/03/29 04:26:05;;;;;;;0.20;0.10;;;;;;;;;;5102968;27;20044;-80
2024/03/29 04:28:31;;;;;;;0.20;0.10;;;;;;;;;;5103959;27;20100;-78
2024/03/29 04:30:58;;;;;;;0.20;0.10;;;;;;;;;;5105709;27;20038;-78
2024/03/29 04:33:24;;;;;;;0.20;0.10;;;;;;;;;;5101787;27;20088;-78
2024/03/29 04:35:56;;;;;;;0.20;0.10;;;;;;;;;;5087744;28;20032;-79
2024/03/29 04:38:22;;;;;;;0.20;0.10;;;;;;;;;;5098763;27;20073;-79
2024/03/29 04:40:52;;;;;;;0.20;0.10;;;;;;;;;;5087072;28;20039;-79
2024/03/29 04:43:19;;;;;;;0.20;0.15;;;;;;;;;;5082727;28;20067;-77
2024/03/29 04:45:45;;;;;;;0.20;0.10;;;;;;;;;;5076873;28;20036;-79
2024/03/29 04:48:12;;;;;;;0.20;0.10;;;;;;;;;;5091988;27;20047;-77
2024/03/29 04:50:38;;;;;;;0.20;0.10;;;;;;;;;;5075713;27;20458;-78
2024/03/29 04:53:04;;;;;;;0.20;0.10;;;;;;;;;;5083294;27;20039;-77
2024/03/29 04:55:30;;;;;;;0.20;0.10;;;;;;;;;;5091125;27;20546;-79
2024/03/29 04:57:56;;;;;;;0.20;0.20;;;;;;;;;;5089165;27;20047;-79
2024/03/29 05:00:22;;;;;;;0.20;0.10;;;;;;;;;;5091404;27;20035;-77
2024/03/29 05:02:48;;;;;;;0.20;0.10;;;;;;;;;;5089098;27;20035;-78
2024/03/29 05:05:14;;;;;;;0.20;0.10;;;;;;;;;;5074801;28;20408;-78
2024/03/29 05:07:40;;;;;;;0.20;0.10;;;;;;;;;;5088085;27;20046;-78
2024/03/29 05:10:07;;;;;;;0.20;0.10;;;;;;;;;;5093139;27;20036;-79
2024/03/29 05:12:33;;;;;;;0.20;0.10;;;;;;;;;;5091031;28;20082;-79
2024/03/29 05:14:59;;;;;;;0.20;0.10;;;;;;;;;;5088766;27;20047;-77
2024/03/29 05:17:27;;;;;;;0.20;0.10;;;;;;;;;;5072903;28;20108;-80
2024/03/29 05:19:53;;;;;;;0.20;0.08;;;;;;;;;;5090355;27;20047;-78
2024/03/29 05:22:19;;;;;;;0.20;0.10;;;;;;;;;;5069049;28;20054;-79
2024/03/29 05:24:45;;;;;;;0.20;0.10;;;;;;;;;;5090548;27;20036;-80
2024/03/29 05:27:12;;;;;;;0.20;0.10;;;;;;;;;;5068293;28;20039;-78
2024/03/29 05:29:38;;;;;;;0.20;0.10;;;;;;;;;;5087493;27;20534;-79
2024/03/29 05:32:04;;;;;;;0.20;0.05;;;;;;;;;;5071914;28;20043;-78
2024/03/29 05:34:31;;;;;;;0.20;0.10;;;;;;;;;;5079974;27;20050;-81
2024/03/29 05:36:57;;;;;;;0.20;0.10;;;;;;;;;;5070855;28;20040;-78
2024/03/29 05:39:23;;;;;;;0.20;0.00;;;;;;;;;;5079913;27;20028;-78
2024/03/29 05:41:49;;;;;;;0.20;0.10;;;;;;;;;;5074352;28;20065;-78
2024/03/29 05:44:15;;;;;;;0.20;0.05;;;;;;;;;;5064263;27;20123;-78
2024/03/29 05:46:41;;;;;;;0.20;0.10;;;;;;;;;;5084488;27;20779;-78
2024/03/29 05:49:07;;;;;;;0.20;0.10;;;;;;;;;;5081096;27;20043;-79
2024/03/29 05:51:34;;;;;;;0.57;0.57;;;;;;;;;;5085761;28;20096;-79
2024/03/29 05:54:00;;;;;;;0.20;0.10;;;;;;;;;;5084298;27;20043;-78
2024/03/29 05:56:26;;;;;;;0.20;0.10;;;;;;;;;;5085576;28;20036;-78
2024/03/29 05:58:52;;;;;;;0.20;0.10;;;;;;;;;;5082751;27;20035;-78
2024/03/29 06:01:18;;;;;;;0.73;0.55;;;;;;;;;;5062069;28;20050;-78
2024/03/29 06:03:44;;;;;;;0.20;0.10;;;;;;;;;;5071388;27;20040;-79
2024/03/29 06:06:17;;;;;;;0.20;0.03;;;;;;;;;;5070993;28;20121;-78
2024/03/29 06:08:43;;;;;;;1.33;1.23;;;;;;;;;;5065015;27;20048;-80
2024/03/29 06:11:09;;;;;;;0.20;0.10;;;;;;;;;;5084408;28;21592;-79
2024/03/29 06:19:21;;;;;;;0.20;0.13;;;;;;;;;;5090804;27;20126;-78
2024/03/29 06:21:47;;;;;;;0.20;0.00;;;;;;;;;;5085974;27;20043;-78
2024/03/29 06:24:14;;;;;;;0.20;0.10;;;;;;;;;;5059788;22;20074;-79
2024/03/29 06:26:40;;;;;;;0.20;0.05;;;;;;;;;;5015222;28;20072;-80
2024/03/29 06:29:09;;;;;;;0.20;0.10;;;;;;;;;;5029750;28;20570;-82
2024/03/29 06:31:35;;;;;;;0.20;0.00;;;;;;;;;;5016871;28;20043;-80
2024/03/29 06:34:01;;;;;;;0.20;0.10;;;;;;;;;;5031561;28;20037;-81
2024/03/29 06:36:27;;;;;;;0.20;0.10;;;;;;;;;;5016308;28;20048;-80
2024/03/29 06:38:54;;;;;;;0.20;0.00;;;;;;;;;;5015051;28;20497;-80
2024/03/29 06:41:20;;;;;;;0.20;0.10;;;;;;;;;;5041134;28;20316;-81
2024/03/29 06:43:46;;;;;;;0.20;0.10;;;;;;;;;;5032596;28;20498;-80
2024/03/29 06:46:12;;;;;;;0.20;0.10;;;;;;;;;;5031894;28;20041;-81
2024/03/29 06:48:38;;;;;;;0.20;0.10;;;;;;;;;;5020468;28;20052;-84
2024/03/29 06:51:05;;;;;;;0.20;0.03;;;;;;;;;;5035186;28;20045;-82
2024/03/29 06:53:31;;;;;;;0.20;0.00;;;;;;;;;;5036121;28;20341;-81
2024/03/29 06:55:57;;;;;;;0.20;0.10;;;;;;;;;;5024707;28;20037;-80
2024/03/29 06:58:23;;;;;;;0.20;0.10;;;;;;;;;;5038760;28;20447;-82
2024/03/29 07:00:50;;;;;;;0.20;0.00;;;;;;;;;;5043849;28;20501;-83
2024/03/29 07:03:18;;;;;;;0.20;0.03;;;;;;;;;;5041996;28;20052;-82
2024/03/29 07:05:44;;;;;;;0.20;0.00;;;;;;;;;;5055882;28;20065;-80
2024/03/29 07:08:10;;;;;;;0.20;0.00;;;;;;;;;;5038454;28;20238;-79
2024/03/29 07:10:37;;;;;;;0.20;0.10;;;;;;;;;;5026892;28;20381;-80
2024/03/29 07:13:03;;;;;;;0.20;0.00;;;;;;;;;;5040416;28;21170;-81
2024/03/29 07:15:30;;;;;;;0.20;0.10;;;;;;;;;;5029555;28;20448;-79
2024/03/29 07:17:58;;;;;;;0.20;0.10;;;;;;;;;;5031023;28;20064;-80
2024/03/29 07:20:24;;;;;;;0.20;0.10;;;;;;;;;;5038213;28;20044;-80
2024/03/29 07:22:50;;;;;;;0.40;0.17;;;;;;;;;;5026770;28;20048;-79
2024/03/29 07:25:16;;;;;;;0.20;0.10;;;;;;;;;;5040604;28;20044;-81
2024/03/29 07:27:43;;;;;;;0.20;0.10;;;;;;;;;;5040913;28;20076;-81
2024/03/29 07:30:10;;;;;;;0.20;0.10;;;;;;;;;;5041434;28;20129;-79
2024/03/29 07:32:37;;;;;;;0.20;0.10;;;;;;;;;;5044074;28;20394;-81
2024/03/29 07:35:03;;;;;;;0.20;0.10;;;;;;;;;;5042929;28;20669;-82
2024/03/29 07:37:29;;;;;;;0.20;0.10;;;;;;;;;;5019546;28;20066;-82
2024/03/29 07:39:55;;;;;;;0.20;0.05;;;;;;;;;;5031368;28;20441;-79
2024/03/29 07:42:22;;;;;;;0.20;0.10;;;;;;;;;;5040347;28;20060;-79
2024/03/29 07:44:48;;;;;;;0.20;0.10;;;;;;;;;;5022777;28;20060;-83
2024/03/29 07:47:14;;;;;;;0.20;0.10;;;;;;;;;;5019618;28;20068;-81
2024/03/29 07:49:40;;;;;;;0.20;0.00;;;;;;;;;;5040156;28;20065;-79
2024/03/29 07:52:08;;;;;;;0.20;0.10;;;;;;;;;;5022483;28;20159;-82
2024/03/29 07:54:35;;;;;;;0.20;0.05;;;;;;;;;;5045232;28;25472;-79
2024/03/29 07:57:01;;;;;;;0.20;0.10;;;;;;;;;;5044122;28;20124;-79
2024/03/29 07:59:27;;;;;;;0.20;0.10;;;;;;;;;;5021800;28;20049;-80
2024/03/29 08:01:54;;;;;;;0.20;0.00;;;;;;;;;;5035371;28;20454;-79
2024/03/29 08:04:20;;;;;;;0.20;0.10;;;;;;;;;;5030013;28;20497;-77
2024/03/29 08:06:47;;;;;;;0.20;0.00;;;;;;;;;;5030027;28;20137;-83
2024/03/29 08:09:18;;;;;;;0.20;0.10;;;;;;;;;;5037530;28;20053;-84
2024/03/29 08:11:47;;;;;;;0.20;0.03;;;;;;;;;;5025300;28;20056;-83
2024/03/29 08:14:13;;;;;;;0.20;0.10;;;;;;;;;;5037455;28;20049;-80
2024/03/29 08:16:39;;;;;;;0.20;0.10;;;;;;;;;;5021738;28;20141;-78
2024/03/29 08:19:05;;;;;;;0.20;0.00;;;;;;;;;;5039741;28;20037;-82
2024/03/29 08:21:31;;;;;;;0.20;0.10;;;;;;;;;;5041944;28;20488;-80
2024/03/29 08:23:57;;;;;;;0.30;0.30;;;;;;;;;;5037414;28;20106;-84
2024/03/29 08:26:28;;;;;;;0.20;0.00;;;;;;;;;;5028961;28;20045;-81
2024/03/29 08:28:57;;;;;;;0.20;0.10;;;;;;;;;;5042287;28;20048;-83
2024/03/29 08:31:24;;;;;;;0.20;0.10;;;;;;;;;;5043511;28;20040;-80
2024/03/29 08:33:53;;;;;;;0.20;0.00;;;;;;;;;;5043300;28;20061;-82
2024/03/29 08:36:19;;;;;;;0.20;0.00;;;;;;;;;;5029281;28;20067;-85
2024/03/29 08:38:46;;;;;;;0.20;0.10;;;;;;;;;;5039705;28;20045;-83
2024/03/29 08:41:12;;;;;;;0.20;0.10;;;;;;;;;;5047026;28;20042;-83
2024/03/29 08:43:38;;;;;;;0.20;0.10;;;;;;;;;;5031730;28;20049;-82
2024/03/29 08:46:04;;;;;;;0.20;0.10;;;;;;;;;;5043409;28;20095;-81
2024/03/29 08:48:30;;;;;;;0.20;0.10;;;;;;;;;;5040314;28;20492;-83
2024/03/29 08:50:56;;;;;;;0.20;0.10;;;;;;;;;;5051394;28;20041;-82
2024/03/29 08:53:23;;;;;;;0.20;0.10;;;;;;;;;;5044334;28;20094;-81
2024/03/29 08:55:49;;;;;;;0.20;0.10;;;;;;;;;;5031803;28;20064;-82
2024/03/29 08:58:15;;;;;;;0.20;0.10;;;;;;;;;;5043463;28;20095;-84
2024/03/29 09:00:41;;;;;;;0.20;0.10;;;;;;;;;;5037891;28;20040;-81
2024/03/29 09:03:07;;;;;;;0.20;0.10;;;;;;;;;;5036510;28;20100;-85
2024/03/29 09:05:33;;;;;;;0.20;0.10;;;;;;;;;;5054095;28;20052;-82
2024/03/29 09:07:59;;;;;;;0.20;0.10;;;;;;;;;;5035955;28;20049;-84
2024/03/29 09:10:28;;;;;;;0.20;0.10;;;;;;;;;;5055966;28;20045;-85
2024/03/29 09:12:55;;;;;;;0.20;0.10;;;;;;;;;;5045029;28;20071;-84
2024/03/29 09:15:21;;;;;;;0.20;0.10;;;;;;;;;;5048836;28;20048;-82
2024/03/29 09:20:39;;;;;;;0.20;0.10;;;;;;;;;;5063156;28;20048;-80
2024/03/29 09:23:05;;;;;;;0.20;0.10;;;;;;;;;;5061093;28;20067;-83
2024/03/29 09:25:32;;;;;;;0.20;0.10;;;;;;;;;;5052068;28;20059;-76
2024/03/29 09:27:58;;;;;;;0.20;0.10;;;;;;;;;;5049237;28;20560;-82
2024/03/29 09:30:24;;;;;;;0.20;0.00;;;;;;;;;;5042436;28;20404;-80
2024/03/29 09:32:50;;;;;;;0.20;0.10;;;;;;;;;;5053021;28;20071;-81
2024/03/29 09:35:19;;;;;;;0.20;0.00;;;;;;;;;;5073338;28;20037;-76
2024/03/29 09:37:46;;;;;;;0.20;0.10;;;;;;;;;;5056231;28;20083;-82
2024/03/29 09:40:12;;;;;;;0.20;0.10;;;;;;;;;;5038161;28;20037;-83
2024/03/29 09:42:39;;;;;;;0.20;0.00;;;;;;;;;;5053631;28;20049;-81
2024/03/29 09:45:05;;;;;;;0.20;0.10;;;;;;;;;;5060276;28;20048;-80
2024/03/29 09:47:35;;;;;;;0.20;0.00;;;;;;;;;;5054181;28;20049;-82
2024/03/29 09:50:06;;;;;;;0.20;0.10;;;;;;;;;;5043590;28;20029;-78
2024/03/29 09:52:35;;;;;;;0.20;0.10;;;;;;;;;;5060208;28;20017;-80
2024/03/29 09:55:04;;;;;;;0.20;0.10;;;;;;;;;;5060821;28;20048;-79
2024/03/29 09:57:31;;;;;;;0.20;0.10;;;;;;;;;;5057385;28;20052;-81
2024/03/29 09:59:57;;;;;;;0.20;0.10;;;;;;;;;;5048646;28;20044;-81
2024/03/29 10:02:26;;;;;;;0.20;0.10;;;;;;;;;;5044970;28;20037;-81
2024/03/29 10:04:54;;;;;;;0.20;0.10;;;;;;;;;;5051025;28;20058;-80
2024/03/29 10:07:20;;;;;;;0.20;0.10;;;;;;;;;;5041429;28;20138;-80
2024/03/29 10:09:46;;;;;;;0.20;0.10;;;;;;;;;;5049761;28;20105;-81
2024/03/29 10:12:12;;;;;;;0.20;0.00;;;;;;;;;;5058937;28;20037;-81
2024/03/29 10:17:33;;;;;;;0.20;0.10;;;;;;;;;;5049811;28;20037;-84
2024/03/29 10:20:05;;;;;;;0.20;0.10;;;;;;;;;;5050290;28;20128;-79
2024/03/29 10:22:44;;;;;;;0.20;0.10;;;;;;;;;;5049591;28;20048;-79
2024/03/29 10:25:10;;;;;;;0.20;0.00;;;;;;;;;;5047106;28;20249;-80
2024/03/29 10:27:37;;;;;;;0.20;0.10;;;;;;;;;;5044252;28;20114;-83
2024/03/29 10:30:03;;;;;;;0.20;0.10;;;;;;;;;;5043085;28;20040;-80
2024/03/29 10:32:30;;;;;;;0.22;0.13;;;;;;;;;;5044709;28;20115;-80
2024/03/29 10:34:56;;;;;;;0.20;0.10;;;;;;;;;;5040768;28;20037;-81
2024/03/29 10:37:29;;;;;;;0.20;0.10;;;;;;;;;;5047933;28;20025;-80
2024/03/29 10:39:56;;;;;;;0.20;0.10;;;;;;;;;;5033859;28;20049;-81
2024/03/29 10:42:25;;;;;;;0.20;0.10;;;;;;;;;;5042921;28;20056;-81
2024/03/29 10:44:51;;;;;;;0.80;0.50;;;;;;;;;;5042810;28;20045;-81
2024/03/29 10:47:20;;;;;;;0.20;0.00;;;;;;;;;;5028012;28;20583;-79
2024/03/29 10:49:51;;;;;;;0.20;0.10;;;;;;;;;;5042277;28;20040;-81
2024/03/29 10:52:18;;;;;;;0.20;0.10;;;;;;;;;;5042837;28;20037;-83
2024/03/29 10:54:45;;;;;;;0.20;0.10;;;;;;;;;;5040634;28;20541;-80
2024/03/29 10:57:17;;;;;;;0.20;0.10;;;;;;;;;;5041564;28;20041;-80
2024/03/29 10:59:53;;;;;;;0.20;0.10;;;;;;;;;;5045533;28;20045;-78
2024/03/29 11:02:29;;;;;;;0.20;0.08;;;;;;;;;;5058058;28;20041;-80
2024/03/29 11:04:56;;;;;;;0.20;0.10;;;;;;;;;;5028690;28;20041;-80
2024/03/29 11:07:23;;;;;;;0.20;0.10;;;;;;;;;;5049396;28;20139;-80
2024/03/29 11:09:50;;;;;;;0.20;0.10;;;;;;;;;;5037668;28;20041;-82
2024/03/29 11:12:17;;;;;;;0.20;0.00;;;;;;;;;;5049382;28;20041;-82
2024/03/29 11:14:47;;;;;;;0.20;0.10;;;;;;;;;;5058845;28;20033;-82
2024/03/29 11:17:14;;;;;;;0.20;0.10;;;;;;;;;;5041265;28;20574;-80
2024/03/29 11:19:40;;;;;;;0.20;0.00;;;;;;;;;;5031365;28;20037;-81
2024/03/29 11:22:07;;;;;;;0.20;0.00;;;;;;;;;;5027350;28;20041;-82
2024/03/29 11:24:34;;;;;;;0.20;0.00;;;;;;;;;;5042155;28;20451;-82
2024/03/29 11:27:07;;;;;;;0.20;0.10;;;;;;;;;;5045727;28;20064;-82
2024/03/29 11:29:38;;;;;;;0.20;0.10;;;;;;;;;;5023342;28;20076;-82
2024/03/29 11:32:05;;;;;;;0.20;0.08;;;;;;;;;;5044193;28;20116;-81
2024/03/29 11:34:34;;;;;;;0.20;0.10;;;;;;;;;;5026175;28;20049;-81
2024/03/29 11:37:07;;;;;;;0.20;0.10;;;;;;;;;;5026234;28;20530;-81
2024/03/29 11:39:35;;;;;;;0.20;0.10;;;;;;;;;;5038311;28;20041;-81
2024/03/29 11:42:01;;;;;;;0.20;0.00;;;;;;;;;;5033013;28;20045;-80
2024/03/29 11:44:27;;;;;;;0.20;0.10;;;;;;;;;;5024009;28;20528;-83
2024/03/29 11:46:56;;;;;;;0.20;0.10;;;;;;;;;;5041498;28;20563;-82
2024/03/29 11:49:22;;;;;;;0.20;0.10;;;;;;;;;;5022277;28;20049;-81
2024/03/29 11:51:48;;;;;;;0.20;0.10;;;;;;;;;;5037172;28;20037;-82
2024/03/29 11:54:14;;;;;;;0.20;0.00;;;;;;;;;;5044123;28;21502;-80
2024/03/29 11:56:40;;;;;;;0.30;0.30;;;;;;;;;;5040927;28;20052;-80
2024/03/29 11:59:06;;;;;;;0.20;0.10;;;;;;;;;;5034539;28;20099;-82
2024/03/29 12:01:33;;;;;;;0.60;0.32;;;;;;;;;;5033788;28;20041;-79
2024/03/29 12:03:59;;;;;;;0.20;0.10;;;;;;;;;;5037004;28;20069;-82
2024/03/29 12:06:26;;;;;;;0.50;0.25;;;;;;;;;;5041514;28;20412;-80
2024/03/29 12:08:53;;;;;;;0.20;0.20;;;;;;;;;;5039975;28;20493;-82
2024/03/29 12:11:19;;;;;;;0.20;0.10;;;;;;;;;;5027403;28;20041;-82
2024/03/29 12:13:45;;;;;;;0.30;0.28;;;;;;;;;;5027679;28;20087;-82
2024/03/29 12:16:12;;;;;;;0.30;0.20;;;;;;;;;;5027598;28;20043;-81
2024/03/29 12:18:38;;;;;;;0.20;0.08;;;;;;;;;;5038417;28;20056;-84
2024/03/29 12:21:04;;;;;;;1.58;1.45;;;;;;;;;;5038785;28;20930;-80
2024/03/29 12:23:30;;;;;;;0.20;0.10;;;;;;;;;;5073978;22;20496;-80
2024/03/29 12:25:58;;;;;;;0.20;0.10;;;;;;;;;;5045716;28;20243;-79
2024/03/29 12:28:25;;;;;;;0.20;0.10;;;;;;;;;;5047628;28;20096;-79
2024/03/29 12:30:52;;;;;;;0.20;0.10;;;;;;;;;;5047851;28;20053;-78
2024/03/29 12:33:22;;;;;;;0.73;0.47;;;;;;;;;;5052095;28;20052;-80
2024/03/29 12:35:49;;;;;;;0.20;0.00;;;;;;;;;;5072492;28;20445;-81
2024/03/29 12:38:16;;;;;;;0.50;0.40;;;;;;;;;;5050423;28;20033;-78
2024/03/29 12:40:43;;;;;;;0.20;0.10;;;;;;;;;;5033724;28;20373;-81
2024/03/29 12:43:10;;;;;;;0.20;0.03;;;;;;;;;;5068102;28;20251;-79
2024/03/29 12:45:37;;;;;;;0.20;0.00;;;;;;;;;;5065141;28;20033;-78
2024/03/29 12:48:03;;;;;;;0.20;0.10;;;;;;;;;;5048729;28;20420;-78
2024/03/29 12:50:30;;;;;;;0.20;0.20;;;;;;;;;;5046713;28;20048;-77
2024/03/29 12:53:00;;;;;;;2.05;0.20;;;;;;;;;;5053411;28;20040;-79
2024/03/29 12:55:31;;;;;;;0.45;0.45;;;;;;;;;;5047240;28;20401;-79
2024/03/29 12:58:00;;;;;;;0.20;0.10;;;;;;;;;;5064942;28;20041;-79
2024/03/29 13:00:27;;;;;;;0.20;0.10;;;;;;;;;;5050157;28;20055;-78
2024/03/29 13:02:53;;;;;;;0.30;0.20;;;;;;;;;;5029127;28;20037;-78
2024/03/29 13:05:19;;;;;;;0.20;0.10;;;;;;;;;;5052233;28;20094;-79
2024/03/29 13:07:45;;;;;;;0.40;0.20;;;;;;;;;;5067095;28;20094;-82
2024/03/29 13:10:15;;;;;;;0.20;0.17;;;;;;;;;;5043931;28;20512;-79
2024/03/29 13:12:46;;;;;;;0.20;0.10;;;;;;;;;;5050398;28;20598;-78
2024/03/29 13:15:19;;;;;;;0.20;0.10;;;;;;;;;;5060454;28;20780;-78
2024/03/29 13:17:46;;;;;;;0.20;0.10;;;;;;;;;;5030307;28;20488;-79
2024/03/29 13:20:12;;;;;;;0.20;0.10;;;;;;;;;;5045435;28;20108;-81
2024/03/29 13:22:39;;;;;;;0.20;0.05;;;;;;;;;;5066896;28;20048;-79
2024/03/29 13:25:05;;;;;;;0.20;0.00;;;;;;;;;;5045327;28;20136;-79
2024/03/29 13:27:32;;;;;;;0.30;0.20;;;;;;;;;;5047993;28;20064;-80
2024/03/29 13:29:58;;;;;;;0.20;0.10;;;;;;;;;;5047108;28;20476;-79
2024/03/29 13:32:24;;;;;;;0.20;0.10;;;;;;;;;;5047499;28;20136;-79
2024/03/29 13:34:50;;;;;;;0.20;0.10;;;;;;;;;;5062221;28;20053;-79
2024/03/29 13:37:16;;;;;;;0.20;0.10;;;;;;;;;;5045536;28;20065;-81
2024/03/29 13:39:42;;;;;;;0.20;0.00;;;;;;;;;;5044893;28;20029;-79
2024/03/29 13:42:08;;;;;;;0.57;0.28;;;;;;;;;;5060862;28;20044;-81
2024/03/29 13:44:34;;;;;;;0.93;0.82;;;;;;;;;;5046431;28;20048;-79
2024/03/29 13:47:00;;;;;;;0.20;0.10;;;;;;;;;;5048045;28;20037;-81
2024/03/29 13:49:29;;;;;;;0.20;0.00;;;;;;;;;;5065868;28;20385;-81
2024/03/29 13:51:55;;;;;;;0.20;0.00;;;;;;;;;;5034340;28;20037;-80
2024/03/29 13:54:22;;;;;;;0.20;0.08;;;;;;;;;;5052634;28;20410;-80
2024/03/29 13:56:48;;;;;;;0.20;0.00;;;;;;;;;;5052738;28;20033;-81
2024/03/29 13:59:14;;;;;;;0.30;0.13;;;;;;;;;;5047684;28;20038;-83
2024/03/29 14:01:40;;;;;;;0.20;0.00;;;;;;;;;;5049984;28;20048;-82
2024/03/29 14:04:06;;;;;;;0.22;0.10;;;;;;;;;;5048113;28;20041;-81
2024/03/29 14:06:32;;;;;;;0.20;0.10;;;;;;;;;;5031418;28;20056;-81
2024/03/29 14:08:58;;;;;;;0.20;0.13;;;;;;;;;;5046546;28;20103;-80
2024/03/29 14:11:24;;;;;;;0.20;0.10;;;;;;;;;;5044934;28;20068;-78
2024/03/29 14:13:55;;;;;;;0.20;0.10;;;;;;;;;;5043462;28;20060;-79
2024/03/29 14:16:22;;;;;;;0.20;0.10;;;;;;;;;;5039471;28;20041;-80
2024/03/29 14:18:48;;;;;;;0.20;0.10;;;;;;;;;;5048121;28;20222;-78
2024/03/29 14:21:14;;;;;;;0.20;0.10;;;;;;;;;;5023514;28;20049;-80
2024/03/29 14:23:40;;;;;;;0.20;0.10;;;;;;;;;;5043533;28;20059;-77
2024/03/29 14:26:06;;;;;;;0.20;0.10;;;;;;;;;;5029270;28;20041;-82
2024/03/29 14:28:32;;;;;;;0.20;0.00;;;;;;;;;;5043697;28;20079;-81
2024/03/29 14:30:58;;;;;;;0.20;0.17;;;;;;;;;;5051287;28;20572;-81
2024/03/29 14:33:24;;;;;;;0.20;0.10;;;;;;;;;;5047836;28;20064;-80
2024/03/29 14:35:50;;;;;;;0.20;0.00;;;;;;;;;;5045635;28;20252;-79
2024/03/29 14:38:16;;;;;;;0.43;0.35;;;;;;;;;;5044682;28;20343;-80
2024/03/29 14:40:42;;;;;;;0.20;0.00;;;;;;;;;;5046490;28;20033;-82
2024/03/29 14:43:08;;;;;;;0.20;0.00;;;;;;;;;;5027029;28;20045;-79
2024/03/29 14:45:34;;;;;;;0.20;0.00;;;;;;;;;;5041636;28;20159;-80
2024/03/29 14:48:00;;;;;;;0.20;0.10;;;;;;;;;;5042275;28;20041;-80
2024/03/29 14:50:27;;;;;;;0.20;0.10;;;;;;;;;;5045326;28;20048;-79
2024/03/29 14:52:53;;;;;;;0.20;0.00;;;;;;;;;;5047165;28;20037;-80
2024/03/29 14:55:19;;;;;;;0.20;0.05;;;;;;;;;;5037196;28;20043;-79
2024/03/29 14:57:46;;;;;;;0.20;0.10;;;;;;;;;;5042117;28;20037;-78